Time;durP1;ratioP1;P1;durP2;ratioP2;P2;SDS_P1;SDS_P2;PMS_P1;PMS_P2;Temp;Humidity;BMP_temperature;BMP_pressure;BME280_temperature;BME280_humidity;BME280_pressure;Samples;Min_cycle;Max_cycle;Signal;HPM_P1;HPM_P2
2022/09/16 00:00:10;;;;;;;;;4.00;3.50;;;;;19.70;50.74;100906.81;4903790;29;45481;-66
2022/09/16 00:02:35;;;;;;;;;4.00;4.00;;;;;19.73;51.16;100920.09;4897102;28;45340;-65
2022/09/16 00:05:01;;;;;;;;;3.00;3.00;;;;;19.71;50.68;100919.34;4898778;29;74420;-66
2022/09/16 00:07:28;;;;;;;;;6.00;5.00;;;;;19.69;51.22;100924.88;4901811;29;53853;-65
2022/09/16 00:09:53;;;;;;;;;5.00;4.00;;;;;19.67;51.11;100925.97;4903384;29;45826;-65
2022/09/16 00:12:19;;;;;;;;;6.00;5.00;;;;;19.67;51.31;100929.53;4904446;28;56284;-66
2022/09/16 00:14:44;;;;;;;;;4.50;3.25;;;;;19.63;51.29;100923.47;4908213;28;71763;-65
2022/09/16 00:17:09;;;;;;;;;3.00;3.00;;;;;19.68;51.10;100936.69;4903632;29;45505;-65
2022/09/16 00:19:35;;;;;;;;;4.00;4.00;;;;;19.61;51.25;100936.25;4902364;28;69374;-66
2022/09/16 00:22:00;;;;;;;;;4.50;3.75;;;;;19.62;51.21;100948.78;4900409;29;45675;-65
2022/09/16 00:24:25;;;;;;;;;3.50;3.25;;;;;19.59;51.62;100948.13;4901346;29;75877;-65
2022/09/16 00:26:50;;;;;;;;;3.25;3.25;;;;;19.59;51.39;100951.69;4902267;29;73174;-66
2022/09/16 00:29:16;;;;;;;;;4.50;4.50;;;;;19.58;51.30;100958.09;4902429;29;54502;-65
2022/09/16 00:31:41;;;;;;;;;3.50;3.50;;;;;19.57;51.49;100952.78;4902003;29;66018;-65
2022/09/16 00:34:06;;;;;;;;;4.00;3.00;;;;;19.58;51.63;100947.28;4902517;29;45590;-65
2022/09/16 00:36:32;;;;;;;;;6.75;5.00;;;;;19.57;51.65;100950.94;4901846;29;68310;-66
2022/09/16 00:38:57;;;;;;;;;3.00;3.00;;;;;19.59;51.60;100953.53;4902668;29;46048;-66
2022/09/16 00:41:26;;;;;;;;;3.00;3.00;;;;;19.57;51.40;100955.50;4901304;29;73430;-66
2022/09/16 00:44:36;;;;;;;;;6.75;4.00;;;;;19.55;51.54;100952.03;4902328;29;45368;-65
2022/09/16 00:47:02;;;;;;;;;4.00;3.00;;;;;19.53;51.96;100956.66;4892920;29;45412;-65
2022/09/16 00:49:30;;;;;;;;;4.50;3.75;;;;;19.50;52.04;100949.63;4902671;29;45794;-65
2022/09/16 00:52:00;;;;;;;;;6.00;3.00;;;;;19.52;51.96;100954.94;4900789;29;45583;-65
2022/09/16 00:54:27;;;;;;;;;4.50;4.00;;;;;19.45;52.29;100949.06;4902100;29;46530;-65
2022/09/16 00:56:56;;;;;;;;;4.00;4.00;;;;;19.51;52.10;100955.88;4902527;29;45393;-65
2022/09/16 00:59:34;;;;;;;;;5.50;4.25;;;;;19.49;52.36;100947.00;4902897;29;45264;-65
2022/09/16 01:02:04;;;;;;;;;4.75;3.00;;;;;19.50;52.35;100944.19;4900835;29;45368;-65
2022/09/16 01:04:35;;;;;;;;;4.00;4.00;;;;;19.49;52.20;100941.59;4898688;29;45319;-65
2022/09/16 01:07:02;;;;;;;;;4.25;2.75;;;;;19.47;52.07;100941.69;4901115;29;45420;-65
2022/09/16 01:09:29;;;;;;;;;4.25;4.25;;;;;19.50;52.30;100940.63;4902789;29;45413;-65
2022/09/16 01:11:54;;;;;;;;;4.75;4.75;;;;;19.48;52.48;100935.31;4901971;29;45474;-65
2022/09/16 01:17:41;;;;;;;;;4.00;3.00;;;;;19.46;52.55;100942.66;4889704;29;45412;-66
2022/09/16 01:20:20;;;;;;;;;5.00;5.00;;;;;19.43;52.82;100942.88;4894260;28;46443;-65
2022/09/16 01:23:07;;;;;;;;;4.25;3.00;;;;;19.39;52.95;100944.91;4901484;29;62873;-66
2022/09/16 01:26:01;;;;;;;;;5.25;4.00;;;;;19.38;52.86;100950.44;4892424;28;45498;-66
2022/09/16 01:29:05;;;;;;;;;5.75;5.00;;;;;19.35;52.90;100943.38;4889829;29;45289;-65
2022/09/16 01:31:48;;;;;;;;;5.75;5.75;;;;;19.14;53.30;100918.59;4823636;29;45402;-65
2022/09/16 01:34:35;;;;;;;;;6.00;4.00;;;;;19.34;53.08;100948.91;4902073;29;45709;-66
2022/09/16 01:37:19;;;;;;;;;3.50;3.50;;;;;19.34;53.42;100946.19;4901738;29;45612;-65
2022/09/16 01:40:11;;;;;;;;;5.00;5.00;;;;;19.31;53.43;100943.69;4896841;29;45448;-66
2022/09/16 01:42:56;;;;;;;;;4.50;4.50;;;;;19.32;53.39;100948.13;4897704;29;45670;-65
2022/09/16 01:45:34;;;;;;;;;6.75;4.50;;;;;19.31;53.41;100949.97;4902067;29;45395;-65
2022/09/16 01:48:23;;;;;;;;;6.00;5.50;;;;;19.32;53.43;100948.13;4892694;29;47280;-66
2022/09/16 01:51:11;;;;;;;;;4.50;4.25;;;;;19.29;53.42;100943.78;4901902;29;45538;-65
2022/09/16 01:53:38;;;;;;;;;5.00;5.00;;;;;19.28;53.76;100950.19;4902192;29;45470;-65
2022/09/16 01:56:32;;;;;;;;;5.00;5.00;;;;;19.29;53.88;100948.34;4900240;28;61397;-65
2022/09/16 01:59:08;;;;;;;;;4.00;4.00;;;;;19.27;53.78;100943.00;4901718;29;45368;-66
2022/09/16 02:01:46;;;;;;;;;8.50;6.00;;;;;19.23;54.07;100942.34;4901845;29;45399;-65
2022/09/16 02:04:17;;;;;;;;;4.00;4.00;;;;;19.18;54.24;100941.78;4896950;29;45529;-65
2022/09/16 02:06:46;;;;;;;;;3.00;3.00;;;;;19.22;53.81;100951.44;4901126;29;45518;-65
2022/09/16 02:09:16;;;;;;;;;6.25;4.00;;;;;19.18;54.01;100943.63;4901490;29;46150;-65
2022/09/16 02:11:46;;;;;;;;;7.25;6.25;;;;;19.14;54.18;100942.09;4900564;29;45629;-65
2022/09/16 02:14:23;;;;;;;;;7.00;6.50;;;;;19.14;54.57;100945.66;4908868;28;45384;-66
2022/09/16 02:17:06;;;;;;;;;7.50;4.50;;;;;19.08;54.61;100935.25;4900127;28;45441;-66
2022/09/16 02:19:38;;;;;;;;;6.25;5.50;;;;;19.10;54.58;100936.00;4900716;28;45448;-65
2022/09/16 02:22:08;;;;;;;;;6.00;5.50;;;;;19.04;54.58;100930.97;4901090;29;45566;-66
2022/09/16 02:24:36;;;;;;;;;6.00;5.25;;;;;19.04;54.77;100933.69;4901261;29;45800;-66
2022/09/16 02:27:07;;;;;;;;;5.00;5.00;;;;;19.07;54.47;100944.31;4900689;28;45544;-65
2022/09/16 02:29:42;;;;;;;;;8.00;6.00;;;;;19.08;54.56;100924.41;4900567;29;45462;-65
2022/09/16 02:32:09;;;;;;;;;5.00;5.00;;;;;19.06;54.55;100929.03;4901577;29;45533;-65
2022/09/16 02:34:40;;;;;;;;;4.00;4.00;;;;;19.03;55.00;100926.56;4901316;29;45417;-65
2022/09/16 02:37:11;;;;;;;;;6.25;6.00;;;;;19.05;54.74;100927.31;4901197;29;45966;-65
2022/09/16 02:39:43;;;;;;;;;6.50;6.25;;;;;19.03;55.01;100919.31;4901180;29;46109;-66
2022/09/16 02:42:09;;;;;;;;;5.50;5.50;;;;;18.98;54.77;100916.03;4899405;29;45617;-66
2022/09/16 02:44:35;;;;;;;;;5.75;5.50;;;;;18.99;55.44;100916.88;4901180;29;45667;-66
2022/09/16 02:47:11;;;;;;;;;5.25;4.00;;;;;18.97;55.07;100924.25;4900858;29;45478;-65
2022/09/16 02:49:52;;;;;;;;;6.75;6.25;;;;;18.92;55.13;100916.41;4901140;29;45444;-65
2022/09/16 02:52:55;;;;;;;;;5.00;5.00;;;;;18.96;55.05;100917.97;4900908;29;46007;-66
2022/09/16 02:55:37;;;;;;;;;7.25;5.50;;;;;18.95;55.32;100920.78;4901125;29;45365;-66
2022/09/16 02:58:04;;;;;;;;;5.25;5.25;;;;;18.94;55.41;100924.44;4900970;29;45577;-66
2022/09/16 03:00:36;;;;;;;;;9.00;6.25;;;;;18.87;55.49;100910.44;4883725;29;48581;-66
2022/09/16 03:03:02;;;;;;;;;6.00;6.00;;;;;18.91;55.64;100919.22;4895757;29;45442;-66
2022/09/16 03:05:28;;;;;;;;;6.00;5.50;;;;;18.88;55.68;100910.34;4900340;29;45324;-66
2022/09/16 03:07:54;;;;;;;;;6.75;5.50;;;;;18.89;55.72;100911.19;4900018;29;45408;-66
2022/09/16 03:10:26;;;;;;;;;6.50;6.00;;;;;18.86;55.63;100911.41;4899886;29;45511;-66
2022/09/16 03:13:12;;;;;;;;;5.00;3.75;;;;;18.88;55.87;100914.91;4899725;29;45720;-66
2022/09/16 03:15:40;;;;;;;;;4.00;4.00;;;;;18.87;56.08;100913.16;4888959;29;45527;-66
2022/09/16 03:18:11;;;;;;;;;7.00;5.25;;;;;18.83;55.57;100912.47;4899618;29;45398;-65
2022/09/16 03:20:39;;;;;;;;;5.00;4.50;;;;;18.85;55.79;100915.09;4900015;28;45569;-66
2022/09/16 03:23:43;;;;;;;;;3.75;3.75;;;;;18.83;55.81;100912.47;4900177;29;45534;-66
2022/09/16 03:26:35;;;;;;;;;5.75;5.50;;;;;18.82;55.78;100910.69;4900170;29;45441;-65
2022/09/16 03:29:00;;;;;;;;;4.50;3.50;;;;;18.80;55.90;100918.06;4900224;29;45509;-65
2022/09/16 03:31:31;;;;;;;;;3.75;3.75;;;;;18.74;55.93;100910.31;4894872;29;46247;-66
2022/09/16 03:34:12;;;;;;;;;8.25;6.25;;;;;18.73;55.91;100911.31;4899667;29;45393;-66
2022/09/16 03:36:48;;;;;;;;;5.00;5.00;;;;;18.71;56.36;100902.44;4888098;29;45338;-65
2022/09/16 03:39:14;;;;;;;;;6.50;6.50;;;;;18.69;55.77;100904.34;4899276;29;45678;-66
2022/09/16 03:41:40;;;;;;;;;6.00;5.00;;;;;18.75;55.73;100912.06;4900453;29;46272;-65
2022/09/16 03:44:06;;;;;;;;;6.25;5.75;;;;;18.72;55.74;100906.84;4903889;29;45369;-65
2022/09/16 03:46:31;;;;;;;;;4.25;3.75;;;;;18.76;56.22;100918.34;4903588;29;45376;-65
2022/09/16 03:48:57;;;;;;;;;5.25;5.00;;;;;18.73;55.92;100914.00;4903794;29;45496;-65
2022/09/16 03:51:24;;;;;;;;;4.00;4.00;;;;;18.68;55.97;100922.41;4894682;29;46084;-66
2022/09/16 03:53:53;;;;;;;;;5.00;4.50;;;;;18.68;55.98;100930.53;4903540;29;45682;-65
2022/09/16 03:56:19;;;;;;;;;7.25;6.25;;;;;18.67;55.90;100927.91;4902448;29;45943;-66
2022/09/16 03:58:46;;;;;;;;;7.00;5.25;;;;;18.62;56.33;100930.91;4903662;29;45365;-66
2022/09/16 04:01:13;;;;;;;;;5.75;4.50;;;;;18.61;55.95;100933.69;4903296;29;46210;-65
2022/09/16 04:03:38;;;;;;;;;4.50;4.50;;;;;18.59;56.19;100933.78;4898204;29;45583;-66
2022/09/16 04:06:04;;;;;;;;;5.00;5.00;;;;;18.55;56.17;100926.84;4902283;29;45385;-65
2022/09/16 04:08:29;;;;;;;;;9.00;6.75;;;;;18.59;56.22;100930.22;4902833;29;45643;-65
2022/09/16 04:10:59;;;;;;;;;6.00;5.00;;;;;18.56;56.40;100925.00;4900000;29;57612;-65
2022/09/16 04:13:24;;;;;;;;;5.75;5.75;;;;;18.56;56.28;100933.13;4903550;28;45612;-65
2022/09/16 04:15:50;;;;;;;;;6.25;5.50;;;;;18.52;56.53;100930.59;4903624;29;45549;-65
2022/09/16 04:18:16;;;;;;;;;6.50;6.50;;;;;18.49;56.38;100929.94;4903430;29;45608;-66
2022/09/16 04:20:42;;;;;;;;;5.25;5.25;;;;;18.49;56.26;100938.03;4900478;28;45915;-65
2022/09/16 04:23:08;;;;;;;;;6.00;6.00;;;;;18.50;56.58;100937.09;4903263;29;45220;-66
2022/09/16 04:25:33;;;;;;;;;6.50;5.25;;;;;18.51;56.51;100941.53;4902865;28;45519;-66
2022/09/16 04:27:58;;;;;;;;;6.00;6.00;;;;;18.50;56.90;100939.78;4901975;29;45452;-65
2022/09/16 04:30:24;;;;;;;;;10.50;6.75;;;;;18.47;56.93;100939.97;4893419;29;45423;-65
2022/09/16 04:32:54;;;;;;;;;10.25;6.25;;;;;18.43;56.42;100947.41;4900052;29;45854;-66
2022/09/16 04:35:19;;;;;;;;;5.25;5.25;;;;;18.40;56.89;100944.03;4903326;29;45349;-65
2022/09/16 04:37:45;;;;;;;;;9.50;8.25;;;;;18.41;57.25;100941.25;4901513;29;45528;-65
2022/09/16 04:40:11;;;;;;;;;5.50;5.50;;;;;18.41;56.60;100946.66;4901743;29;46886;-66
2022/09/16 04:42:36;;;;;;;;;8.25;8.25;;;;;18.40;57.15;100947.59;4902278;29;45385;-65
2022/09/16 04:45:01;;;;;;;;;6.00;6.00;;;;;18.36;57.02;100946.06;4903324;29;45463;-66
2022/09/16 04:47:28;;;;;;;;;7.00;7.00;;;;;18.32;57.12;100950.75;4902745;29;45373;-66
2022/09/16 04:49:53;;;;;;;;;7.00;6.00;;;;;18.31;57.37;100950.88;4901621;29;46167;-66
2022/09/16 04:52:18;;;;;;;;;9.25;9.25;;;;;18.31;57.52;100950.88;4902238;29;45432;-65
2022/09/16 04:54:44;;;;;;;;;9.25;7.00;;;;;18.26;57.56;100934.06;4901220;29;49873;-66
2022/09/16 04:57:09;;;;;;;;;8.75;8.75;;;;;18.26;57.01;100937.66;4902415;29;45397;-66
2022/09/16 04:59:34;;;;;;;;;10.00;7.75;;;;;18.28;57.29;100940.25;4902130;29;45390;-65
2022/09/16 05:02:00;;;;;;;;;6.25;5.75;;;;;18.28;57.22;100940.25;4900820;28;45468;-65
2022/09/16 05:04:25;;;;;;;;;7.00;6.00;;;;;18.25;57.80;100944.00;4899613;29;45376;-65
2022/09/16 05:06:50;;;;;;;;;7.25;7.25;;;;;18.21;57.37;100944.28;4900907;29;47489;-66
2022/09/16 05:09:16;;;;;;;;;9.50;6.25;;;;;18.21;57.85;100949.69;4901412;29;45539;-65
2022/09/16 05:11:41;;;;;;;;;11.50;9.00;;;;;18.18;57.57;100949.91;4898255;29;45369;-66
2022/09/16 05:14:12;;;;;;;;;9.25;8.25;;;;;18.15;57.97;100951.81;4902442;29;45592;-65
2022/09/16 05:16:37;;;;;;;;;9.00;9.00;;;;;18.11;57.49;100946.69;4902182;29;45360;-66
2022/09/16 05:19:06;;;;;;;;;7.25;7.25;;;;;18.06;57.89;100946.97;4901804;28;46323;-65
2022/09/16 05:21:36;;;;;;;;;9.00;8.50;;;;;18.03;58.20;100949.84;4902084;29;45602;-66
2022/09/16 05:24:06;;;;;;;;;8.75;8.75;;;;;18.05;57.62;100952.47;4901803;29;45608;-65
2022/09/16 05:26:34;;;;;;;;;8.50;8.50;;;;;18.05;58.16;100942.53;4901156;29;45562;-65
2022/09/16 05:29:01;;;;;;;;;10.25;9.25;;;;;18.00;58.36;100931.13;4901027;29;47341;-66
2022/09/16 05:31:29;;;;;;;;;9.00;7.25;;;;;18.03;57.73;100936.34;4902129;29;45527;-65
2022/09/16 05:33:57;;;;;;;;;9.25;8.50;;;;;18.06;58.07;100943.38;4902573;29;45461;-66
2022/09/16 05:36:24;;;;;;;;;6.75;5.50;;;;;18.07;58.44;100950.53;4901577;28;45393;-65
2022/09/16 05:38:50;;;;;;;;;7.25;7.25;;;;;18.06;58.17;100949.69;4901995;29;46389;-65
2022/09/16 05:41:15;;;;;;;;;5.25;5.25;;;;;18.06;58.30;100951.47;4901701;29;45414;-66
2022/09/16 05:43:41;;;;;;;;;11.25;10.00;;;;;18.08;57.96;100958.53;4902196;29;45833;-65
2022/09/16 05:46:07;;;;;;;;;10.00;10.00;;;;;18.05;58.39;100958.72;4900481;29;45563;-66
2022/09/16 05:48:33;;;;;;;;;7.00;5.50;;;;;18.10;58.46;100964.72;4902189;29;45398;-65
2022/09/16 05:51:03;;;;;;;;;10.25;10.00;;;;;18.12;58.50;100968.19;4901770;29;45559;-65
2022/09/16 05:53:30;;;;;;;;;8.50;8.50;;;;;18.07;58.12;100958.63;4899329;29;46990;-72
2022/09/16 05:55:56;;;;;;;;;7.25;7.25;;;;;18.06;58.26;100956.88;4901164;28;45649;-73
2022/09/16 05:58:22;;;;;;;;;11.00;9.00;;;;;18.08;58.27;100968.50;4901343;29;45656;-71
2022/09/16 06:00:48;;;;;;;;;9.25;9.25;;;;;18.10;58.48;100959.31;4902587;29;45341;-72
2022/09/16 06:03:13;;;;;;;;;12.50;10.00;;;;;18.11;57.76;100961.06;4885441;29;45429;-72
2022/09/16 06:05:38;;;;;;;;;11.00;10.75;;;;;18.07;58.54;100964.03;4901372;29;50908;-72
2022/09/16 06:08:04;;;;;;;;;12.25;11.25;;;;;18.09;57.93;100976.50;4898032;29;45479;-72
2022/09/16 06:10:29;;;;;;;;;13.75;11.00;;;;;17.91;58.36;100954.16;4884969;29;45729;-72
2022/09/16 06:12:54;;;;;;;;;13.00;11.00;;;;;17.93;58.66;100954.94;4905640;28;45451;-72
2022/09/16 06:15:20;;;;;;;;;11.25;10.25;;;;;18.01;58.11;100973.41;4901044;29;45441;-72
2022/09/16 06:17:45;;;;;;;;;15.50;13.00;;;;;18.01;58.30;100972.50;4883303;29;46148;-72
2022/09/16 06:20:13;;;;;;;;;13.00;13.00;;;;;17.81;58.02;100952.94;4901484;28;45732;-72
2022/09/16 06:22:39;;;;;;;;;12.75;11.75;;;;;17.82;58.62;100967.31;4898946;29;45712;-71
2022/09/16 06:25:05;;;;;;;;;12.25;12.25;;;;;17.80;58.54;100964.69;4901459;29;45370;-71
2022/09/16 06:27:31;;;;;;;;;12.50;12.50;;;;;17.81;58.58;100981.75;4895944;29;45335;-72
2022/09/16 06:29:56;;;;;;;;;12.75;11.50;;;;;17.71;58.86;100971.50;4900330;29;45272;-72
2022/09/16 06:32:22;;;;;;;;;13.75;13.25;;;;;17.73;59.07;100966.88;4883822;29;45251;-71
2022/09/16 06:34:49;;;;;;;;;14.25;13.00;;;;;17.62;58.70;100946.88;4884844;29;45401;-72
2022/09/16 06:37:14;;;;;;;;;14.75;12.00;;;;;17.81;58.79;100984.47;4899146;29;45581;-72
2022/09/16 06:39:39;;;;;;;;;11.50;11.50;;;;;17.85;58.85;100988.72;4901349;29;45520;-71
2022/09/16 06:42:08;;;;;;;;;13.50;12.25;;;;;17.84;58.99;100976.19;4900090;29;45404;-73
2022/09/16 06:44:33;;;;;;;;;12.25;11.75;;;;;17.85;58.99;100972.53;4881990;29;45464;-73
2022/09/16 06:46:58;;;;;;;;;12.25;10.50;;;;;17.77;58.86;100959.47;4897426;29;45727;-74
2022/09/16 06:49:24;;;;;;;;;15.75;15.50;;;;;17.84;58.97;100981.56;4883509;29;45403;-75
2022/09/16 06:51:50;;;;;;;;;13.50;12.25;;;;;17.81;58.54;100984.47;4900830;29;45705;-74
2022/09/16 06:54:16;;;;;;;;;13.75;13.00;;;;;17.82;58.61;100988.91;4900329;29;45493;-71
2022/09/16 06:56:41;;;;;;;;;12.00;11.75;;;;;17.83;59.24;100985.25;4898650;29;45567;-72
2022/09/16 06:59:08;;;;;;;;;14.50;12.00;;;;;17.84;58.89;100981.56;4899771;29;45785;-72
2022/09/16 07:01:33;;;;;;;;;9.50;7.50;;;;;17.89;58.96;100988.50;4898975;29;45503;-71
2022/09/16 07:04:04;;;;;;;;;10.25;10.00;;;;;17.89;59.15;100995.72;4882813;29;45685;-72
2022/09/16 07:06:30;;;;;;;;;11.75;11.25;;;;;17.95;58.84;100990.81;4895690;28;45578;-72
2022/09/16 07:08:55;;;;;;;;;11.25;11.25;;;;;17.96;59.05;101002.50;4895946;29;45542;-72
2022/09/16 07:11:22;;;;;;;;;11.00;10.25;;;;;18.00;58.49;101009.47;4897247;28;45527;-72
2022/09/16 07:13:49;;;;;;;;;9.50;8.50;;;;;17.94;58.54;101001.72;4899997;28;45309;-72
2022/09/16 07:16:17;;;;;;;;;9.75;9.25;;;;;18.04;58.70;101021.84;4900786;28;45473;-72
2022/09/16 07:18:43;;;;;;;;;10.00;9.00;;;;;18.08;58.85;101023.38;4903347;28;45634;-72
2022/09/16 07:21:12;;;;;;;;;11.00;10.00;;;;;18.11;59.11;101012.41;4903234;29;45533;-72
2022/09/16 07:23:39;;;;;;;;;11.75;8.50;;;;;18.17;59.00;101015.69;4903204;29;45468;-72
2022/09/16 07:26:11;;;;;;;;;10.50;10.50;;;;;18.21;58.25;101025.34;4903512;28;46468;-72
2022/09/16 07:28:38;;;;;;;;;12.50;11.50;;;;;18.20;58.52;101026.31;4904399;29;45297;-72
2022/09/16 07:31:06;;;;;;;;;11.50;10.50;;;;;18.17;58.86;101018.38;4902835;29;45478;-72
2022/09/16 07:33:36;;;;;;;;;10.50;9.50;;;;;18.21;58.31;101026.22;4899940;29;45488;-72
2022/09/16 07:36:04;;;;;;;;;10.00;7.75;;;;;18.18;57.66;101028.25;4903952;29;45370;-72
2022/09/16 07:38:29;;;;;;;;;12.50;10.00;;;;;18.08;58.51;101017.97;4903413;29;45661;-72
2022/09/16 07:41:02;;;;;;;;;11.50;10.75;;;;;18.15;58.55;101029.28;4902576;29;45444;-70
2022/09/16 07:43:27;;;;;;;;;12.25;10.25;;;;;18.19;58.36;101030.81;4904069;29;45409;-70
2022/09/16 07:45:57;;;;;;;;;9.00;9.00;;;;;18.25;58.60;101029.59;4903816;29;45424;-71
2022/09/16 07:48:23;;;;;;;;;9.50;9.50;;;;;18.25;58.04;101035.00;4905165;28;45820;-68
2022/09/16 07:50:59;;;;;;;;;7.00;7.00;;;;;18.25;58.19;101029.59;4906364;28;45523;-68
2022/09/16 07:53:26;;;;;;;;;11.50;9.50;;;;;18.27;58.40;101038.50;4884752;29;45555;-68
2022/09/16 07:55:55;;;;;;;;;10.25;9.25;;;;;18.29;58.03;101039.25;4906227;28;47147;-68
2022/09/16 07:58:21;;;;;;;;;12.00;8.75;;;;;18.29;58.07;101036.56;4903267;28;45389;-68
2022/09/16 08:00:48;;;;;;;;;9.25;7.75;;;;;18.27;58.03;101033.09;4883537;28;46034;-67
2022/09/16 08:03:14;;;;;;;;;5.50;5.50;;;;;18.25;57.76;101035.88;4907083;28;45843;-68
2022/09/16 08:05:40;;;;;;;;;9.00;7.00;;;;;18.37;57.35;101047.78;4885866;29;47470;-68
2022/09/16 08:08:05;;;;;;;;;11.00;8.75;;;;;18.42;57.24;101048.38;4902678;28;45696;-68
2022/09/16 08:10:31;;;;;;;;;10.00;9.75;;;;;18.46;57.14;101058.03;4897434;28;45314;-68
2022/09/16 08:12:56;;;;;;;;;8.50;7.00;;;;;18.45;56.77;101047.31;4904485;28;45412;-68
2022/09/16 08:15:21;;;;;;;;;10.25;7.00;;;;;18.49;56.80;101060.56;4905274;28;45521;-68
2022/09/16 08:17:47;;;;;;;;;4.50;4.50;;;;;18.47;55.74;101057.06;4903616;28;46925;-68
2022/09/16 08:20:13;;;;;;;;;6.75;5.50;;;;;18.50;56.11;101054.19;4901250;28;46561;-68
2022/09/16 08:22:38;;;;;;;;;6.75;5.50;;;;;18.50;55.50;101054.19;4902799;28;45487;-68
2022/09/16 08:25:04;;;;;;;;;4.25;4.25;;;;;18.47;55.04;101053.50;4899143;29;45722;-67
2022/09/16 08:27:29;;;;;;;;;6.50;4.75;;;;;18.44;55.47;101054.56;4903118;29;45704;-67
2022/09/16 08:29:55;;;;;;;;;9.00;5.75;;;;;18.46;55.29;101057.16;4903433;29;45495;-68
2022/09/16 08:32:20;;;;;;;;;3.75;3.75;;;;;18.48;54.56;101069.63;4903752;29;45608;-68
2022/09/16 08:34:46;;;;;;;;;4.75;3.75;;;;;18.40;54.35;101052.13;4903709;29;45615;-67
2022/09/16 08:37:11;;;;;;;;;7.25;4.00;;;;;18.39;53.87;101062.06;4900786;28;45749;-69
2022/09/16 08:39:37;;;;;;;;;0.00;0.00;;;;;18.42;53.90;101074.53;4901397;29;45377;-67
2022/09/16 08:42:39;;;;;;;;;3.50;3.50;;;;;18.33;53.39;101066.00;4902673;29;45422;-68
2022/09/16 08:45:41;;;;;;;;;4.50;3.75;;;;;18.44;53.77;101080.72;4903565;29;46288;-68
2022/09/16 08:48:28;;;;;;;;;6.25;3.75;;;;;18.43;53.69;101087.97;4901879;28;45290;-68
2022/09/16 08:50:54;;;;;;;;;6.25;5.50;;;;;18.37;53.65;101084.75;4898365;28;45264;-69
2022/09/16 08:53:36;;;;;;;;;6.00;4.75;;;;;18.41;54.07;101086.28;4901262;28;45627;-68
2022/09/16 08:56:09;;;;;;;;;6.00;5.75;;;;;18.37;54.20;101082.06;4901799;28;46577;-68
2022/09/16 08:58:57;;;;;;;;;5.75;4.75;;;;;18.32;53.35;101066.09;4898793;29;45766;-68
2022/09/16 09:01:39;;;;;;;;;5.50;4.00;;;;;18.46;53.57;101090.47;4907169;28;46257;-69
2022/09/16 09:04:05;;;;;;;;;4.00;3.75;;;;;18.40;52.42;101082.72;4902510;28;45453;-68
2022/09/16 09:06:42;;;;;;;;;4.25;3.25;;;;;18.44;52.81;101095.13;4910452;28;46731;-68
2022/09/16 09:09:40;;;;;;;;;4.00;4.00;;;;;18.47;52.57;101094.03;4897902;29;45344;-68
2022/09/16 09:12:39;;;;;;;;;4.50;3.75;;;;;18.52;52.91;101097.34;4889711;28;45545;-68
2022/09/16 09:15:36;;;;;;;;;3.25;3.25;;;;;18.50;51.96;101097.44;4799730;29;45369;-68
2022/09/16 09:18:05;;;;;;;;;2.50;2.50;;;;;18.55;51.95;101099.00;4906734;28;45515;-68
2022/09/16 09:20:49;;;;;;;;;3.50;3.50;;;;;18.60;52.08;101111.28;4894524;29;45586;-68
2022/09/16 09:23:39;;;;;;;;;3.00;3.00;;;;;18.55;51.40;101102.56;4908987;28;45514;-68
2022/09/16 09:26:21;;;;;;;;;2.00;2.00;;;;;18.56;50.94;101107.03;4906109;28;45336;-68
2022/09/16 09:29:15;;;;;;;;;4.50;2.50;;;;;18.58;51.30;101117.75;4887995;28;48192;-68
2022/09/16 09:32:06;;;;;;;;;2.75;2.75;;;;;18.61;51.31;101114.84;4898588;29;45429;-67
2022/09/16 09:34:51;;;;;;;;;3.75;2.25;;;;;18.58;51.58;101102.38;4906537;28;45563;-67
2022/09/16 09:37:35;;;;;;;;;4.25;4.25;;;;;18.70;51.24;101114.28;4880960;29;45474;-67
2022/09/16 09:40:28;;;;;;;;;1.75;1.75;;;;;18.74;50.17;101113.13;4901583;29;46628;-67
2022/09/16 09:43:22;;;;;;;;;6.00;3.00;;;;;18.75;50.16;101117.59;4897292;29;45325;-67
2022/09/16 09:45:57;;;;;;;;;1.50;1.50;;;;;18.72;49.49;101120.47;4901596;29;45462;-67
2022/09/16 09:48:29;;;;;;;;;4.00;2.25;;;;;18.67;50.41;101107.22;4885415;29;45584;-67
2022/09/16 09:51:00;;;;;;;;;2.50;2.50;;;;;18.72;49.81;101127.72;4892199;29;46318;-67
2022/09/16 09:53:32;;;;;;;;;5.25;3.75;;;;;18.65;49.69;101117.25;4883385;28;45384;-67
2022/09/16 09:56:23;;;;;;;;;4.00;3.00;;;;;18.70;50.46;101117.00;4899910;29;45396;-67
2022/09/16 09:59:10;;;;;;;;;2.75;2.00;;;;;18.78;49.57;101124.66;4898425;29;46055;-67
2022/09/16 10:01:35;;;;;;;;;1.75;1.75;;;;;18.78;49.14;101119.25;4901159;29;45455;-67
2022/09/16 10:04:02;;;;;;;;;0.50;0.50;;;;;18.62;48.59;101090.41;4883350;29;45533;-67
2022/09/16 10:06:32;;;;;;;;;1.75;1.75;;;;;18.83;48.58;101123.44;4900564;28;45425;-67
2022/09/16 10:08:58;;;;;;;;;2.50;2.50;;;;;18.86;48.84;101125.94;4883227;29;46117;-67
2022/09/16 10:11:27;;;;;;;;;2.00;1.75;;;;;18.90;49.29;101117.66;4901569;29;46218;-67
2022/09/16 10:13:59;;;;;;;;;2.00;2.00;;;;;18.94;48.91;101121.91;4886000;29;45590;-67
2022/09/16 10:16:28;;;;;;;;;3.00;3.00;;;;;18.99;47.69;101119.78;4881901;29;45644;-67
2022/09/16 10:19:21;;;;;;;;;2.00;2.00;;;;;19.02;47.29;101116.88;4899876;29;45471;-67
2022/09/16 10:21:53;;;;;;;;;4.00;4.00;;;;;19.00;46.62;101121.53;4888705;29;45544;-68
2022/09/16 10:24:32;;;;;;;;;2.75;2.25;;;;;18.80;47.03;101091.13;4901172;29;45685;-67
2022/09/16 10:26:59;;;;;;;;;3.00;3.00;;;;;18.91;47.68;101103.16;4875382;29;45554;-69
2022/09/16 10:29:24;;;;;;;;;3.25;2.00;;;;;18.90;46.46;101101.44;4894160;29;45858;-67
2022/09/16 10:31:50;;;;;;;;;2.00;2.00;;;;;18.89;46.66;101108.66;4900602;29;45520;-67
2022/09/16 10:34:33;;;;;;;;;3.75;2.75;;;;;18.90;46.81;101096.88;4883430;29;45716;-67
2022/09/16 10:37:02;;;;;;;;;2.50;1.75;;;;;18.91;46.77;101098.63;4883053;29;45395;-67
2022/09/16 10:39:29;;;;;;;;;2.50;2.50;;;;;18.94;45.82;101102.97;4882588;29;45741;-67
2022/09/16 10:41:55;;;;;;;;;1.25;1.25;;;;;18.96;45.07;101095.63;4900745;29;45973;-67
2022/09/16 10:44:31;;;;;;;;;2.00;2.00;;;;;19.12;44.90;101123.47;4900190;29;46118;-67
2022/09/16 10:46:58;;;;;;;;;1.50;1.50;;;;;19.14;45.02;101126.06;4890129;29;45548;-67
2022/09/16 10:49:34;;;;;;;;;2.00;2.00;;;;;19.17;44.78;101123.19;4900328;29;45630;-67
2022/09/16 10:52:08;;;;;;;;;1.75;1.75;;;;;19.03;44.71;101097.00;4882798;29;48273;-67
2022/09/16 10:54:34;;;;;;;;;1.75;1.75;;;;;19.08;44.66;101097.59;4886496;29;45448;-67
2022/09/16 10:56:59;;;;;;;;;3.50;1.00;;;;;19.22;44.47;101123.75;4886662;29;45653;-67
2022/09/16 10:59:24;;;;;;;;;1.00;1.00;;;;;19.21;44.09;101111.19;4887267;29;45922;-67
2022/09/16 11:01:57;;;;;;;;;3.75;1.50;;;;;19.31;44.87;101116.91;4902406;29;46742;-67
2022/09/16 11:04:33;;;;;;;;;2.50;2.00;;;;;19.36;44.07;101125.59;4902892;29;45604;-67
2022/09/16 11:07:05;;;;;;;;;1.50;1.50;;;;;19.43;44.21;101126.97;4897098;29;45520;-67
2022/09/16 11:09:40;;;;;;;;;2.00;2.00;;;;;19.42;44.53;101128.78;4901004;28;45463;-66
2022/09/16 11:12:21;;;;;;;;;1.00;1.00;;;;;19.45;44.79;101125.03;4918729;28;48361;-66
2022/09/16 11:15:19;;;;;;;;;3.00;2.25;;;;;19.39;44.69;101114.56;4902426;29;45803;-66
2022/09/16 11:18:15;;;;;;;;;2.00;2.00;;;;;19.50;44.91;101132.84;4900329;28;45488;-66
2022/09/16 11:21:16;;;;;;;;;1.00;1.00;;;;;19.52;45.00;101130.91;4903142;29;45717;-66
2022/09/16 11:23:56;;;;;;;;;1.50;1.50;;;;;19.54;44.89;101119.00;4904520;29;45505;-66
2022/09/16 11:26:42;;;;;;;;;2.75;1.00;;;;;19.47;44.52;101112.25;4904873;29;45420;-66
2022/09/16 11:29:19;;;;;;;;;2.50;1.00;;;;;19.62;44.58;101129.34;4896298;28;45402;-66
2022/09/16 11:31:57;;;;;;;;;4.00;3.00;;;;;19.64;44.40;101124.69;4902049;29;45502;-66
2022/09/16 11:34:30;;;;;;;;;1.00;1.00;;;;;19.66;44.44;101127.31;4885334;29;46991;-67
2022/09/16 11:37:20;;;;;;;;;2.00;1.25;;;;;19.65;44.81;101126.44;4918321;28;45694;-66
2022/09/16 11:40:11;;;;;;;;;2.25;2.25;;;;;19.69;45.09;101127.13;4903456;29;45481;-66
2022/09/16 11:42:54;;;;;;;;;2.00;2.00;;;;;19.66;44.75;101117.34;4900329;29;45474;-66
2022/09/16 11:45:30;;;;;;;;;2.50;1.00;;;;;19.59;44.62;101116.88;4904697;28;46636;-67